sensor_id;sensor_type;location;lat;lon;timestamp;temperature;humidity
58447;DHT22;44240;51.840;7.258;2022-10-24T00:00:31;15.60;99.90
58447;DHT22;44240;51.840;7.258;2022-10-24T00:02:56;15.60;99.90
58447;DHT22;44240;51.840;7.258;2022-10-24T00:05:22;15.60;99.90
58447;DHT22;44240;51.840;7.258;2022-10-24T00:07:49;15.60;99.90
58447;DHT22;44240;51.840;7.258;2022-10-24T00:10:15;15.60;99.90
58447;DHT22;44240;51.840;7.258;2022-10-24T00:12:41;15.60;99.90
58447;DHT22;44240;51.840;7.258;2022-10-24T00:15:07;15.60;99.90
58447;DHT22;44240;51.840;7.258;2022-10-24T00:17:33;15.60;99.90
58447;DHT22;44240;51.840;7.258;2022-10-24T00:19:59;15.60;99.90
58447;DHT22;44240;51.840;7.258;2022-10-24T00:22:26;15.60;99.90
58447;DHT22;44240;51.840;7.258;2022-10-24T00:24:52;15.60;99.90
58447;DHT22;44240;51.840;7.258;2022-10-24T00:27:18;15.70;99.90
58447;DHT22;44240;51.840;7.258;2022-10-24T00:29:43;15.70;99.90
58447;DHT22;44240;51.840;7.258;2022-10-24T00:32:09;15.70;99.90
58447;DHT22;44240;51.840;7.258;2022-10-24T00:34:35;15.70;99.90
58447;DHT22;44240;51.840;7.258;2022-10-24T00:37:01;15.70;99.90
58447;DHT22;44240;51.840;7.258;2022-10-24T00:39:26;15.70;99.90
58447;DHT22;44240;51.840;7.258;2022-10-24T00:41:52;15.70;99.90
58447;DHT22;44240;51.840;7.258;2022-10-24T00:44:25;15.70;99.90
58447;DHT22;44240;51.840;7.258;2022-10-24T00:47:00;15.60;99.90
58447;DHT22;44240;51.840;7.258;2022-10-24T00:49:43;15.60;99.90
58447;DHT22;44240;51.840;7.258;2022-10-24T00:52:10;15.60;99.90
58447;DHT22;44240;51.840;7.258;2022-10-24T00:54:36;15.60;99.90
58447;DHT22;44240;51.840;7.258;2022-10-24T00:57:26;15.60;99.90
58447;DHT22;44240;51.840;7.258;2022-10-24T00:59:57;15.60;99.90
58447;DHT22;44240;51.840;7.258;2022-10-24T01:02:26;15.60;99.90
58447;DHT22;44240;51.840;7.258;2022-10-24T01:04:51;15.50;99.90
58447;DHT22;44240;51.840;7.258;2022-10-24T01:16:10;15.50;99.90
58447;DHT22;44240;51.840;7.258;2022-10-24T01:18:51;15.40;99.90
58447;DHT22;44240;51.840;7.258;2022-10-24T01:26:45;15.40;99.90
58447;DHT22;44240;51.840;7.258;2022-10-24T01:32:39;15.40;99.90
58447;DHT22;44240;51.840;7.258;2022-10-24T01:38:30;15.40;99.90
58447;DHT22;44240;51.840;7.258;2022-10-24T01:41:00;15.30;99.90
58447;DHT22;44240;51.840;7.258;2022-10-24T01:43:33;15.30;99.90
58447;DHT22;44240;51.840;7.258;2022-10-24T01:46:09;15.30;99.90
58447;DHT22;44240;51.840;7.258;2022-10-24T01:48:40;15.30;99.90
58447;DHT22;44240;51.840;7.258;2022-10-24T01:51:07;15.30;99.90
58447;DHT22;44240;51.840;7.258;2022-10-24T01:53:35;15.20;99.90
58447;DHT22;44240;51.840;7.258;2022-10-24T01:56:01;15.30;99.90
58447;DHT22;44240;51.840;7.258;2022-10-24T01:58:27;15.20;99.90
58447;DHT22;44240;51.840;7.258;2022-10-24T02:00:56;15.20;99.90
58447;DHT22;44240;51.840;7.258;2022-10-24T02:03:31;15.20;99.90
58447;DHT22;44240;51.840;7.258;2022-10-24T02:06:05;15.20;99.90
58447;DHT22;44240;51.840;7.258;2022-10-24T02:08:37;15.20;99.90
58447;DHT22;44240;51.840;7.258;2022-10-24T02:11:05;15.20;99.90
58447;DHT22;44240;51.840;7.258;2022-10-24T02:16:04;15.20;99.90
58447;DHT22;44240;51.840;7.258;2022-10-24T02:18:32;15.20;99.90
58447;DHT22;44240;51.840;7.258;2022-10-24T02:21:03;15.20;99.90
58447;DHT22;44240;51.840;7.258;2022-10-24T02:23:36;15.20;99.90
58447;DHT22;44240;51.840;7.258;2022-10-24T02:26:07;15.20;99.90
58447;DHT22;44240;51.840;7.258;2022-10-24T02:28:41;15.20;99.90
58447;DHT22;44240;51.840;7.258;2022-10-24T02:31:18;15.20;99.90
58447;DHT22;44240;51.840;7.258;2022-10-24T02:33:47;15.20;99.90
58447;DHT22;44240;51.840;7.258;2022-10-24T02:36:17;15.20;99.90
58447;DHT22;44240;51.840;7.258;2022-10-24T02:38:46;15.20;99.90
58447;DHT22;44240;51.840;7.258;2022-10-24T02:41:19;15.20;99.90
58447;DHT22;44240;51.840;7.258;2022-10-24T02:43:46;15.20;99.90
58447;DHT22;44240;51.840;7.258;2022-10-24T02:46:14;15.20;99.90
58447;DHT22;44240;51.840;7.258;2022-10-24T02:48:46;15.20;99.90
58447;DHT22;44240;51.840;7.258;2022-10-24T02:51:14;15.20;99.90
58447;DHT22;44240;51.840;7.258;2022-10-24T02:53:42;15.20;99.90
58447;DHT22;44240;51.840;7.258;2022-10-24T02:56:07;15.20;99.90
58447;DHT22;44240;51.840;7.258;2022-10-24T02:58:33;15.20;99.90
58447;DHT22;44240;51.840;7.258;2022-10-24T03:00:58;15.30;99.90
58447;DHT22;44240;51.840;7.258;2022-10-24T03:03:24;15.30;99.90
58447;DHT22;44240;51.840;7.258;2022-10-24T03:05:50;15.30;99.90
58447;DHT22;44240;51.840;7.258;2022-10-24T03:08:15;15.30;99.90
58447;DHT22;44240;51.840;7.258;2022-10-24T03:10:41;15.30;99.90
58447;DHT22;44240;51.840;7.258;2022-10-24T03:13:06;15.30;99.90
58447;DHT22;44240;51.840;7.258;2022-10-24T03:15:32;15.30;99.90
58447;DHT22;44240;51.840;7.258;2022-10-24T03:17:58;15.30;99.90
58447;DHT22;44240;51.840;7.258;2022-10-24T03:20:24;15.30;99.90
58447;DHT22;44240;51.840;7.258;2022-10-24T03:22:49;15.30;99.90
58447;DHT22;44240;51.840;7.258;2022-10-24T03:25:15;15.30;99.90
58447;DHT22;44240;51.840;7.258;2022-10-24T03:27:41;15.40;99.90
58447;DHT22;44240;51.840;7.258;2022-10-24T03:30:08;15.40;99.90
58447;DHT22;44240;51.840;7.258;2022-10-24T03:32:33;15.50;99.90
58447;DHT22;44240;51.840;7.258;2022-10-24T03:35:00;15.50;99.90
58447;DHT22;44240;51.840;7.258;2022-10-24T03:37:25;15.50;99.90
58447;DHT22;44240;51.840;7.258;2022-10-24T03:39:51;15.60;99.90
58447;DHT22;44240;51.840;7.258;2022-10-24T03:42:16;15.50;99.90
58447;DHT22;44240;51.840;7.258;2022-10-24T03:44:42;15.60;99.90
58447;DHT22;44240;51.840;7.258;2022-10-24T03:47:08;15.50;99.90
58447;DHT22;44240;51.840;7.258;2022-10-24T03:49:33;15.60;99.90
58447;DHT22;44240;51.840;7.258;2022-10-24T03:51:59;15.60;99.90
58447;DHT22;44240;51.840;7.258;2022-10-24T03:54:24;15.60;99.90
58447;DHT22;44240;51.840;7.258;2022-10-24T03:56:50;15.60;99.90
58447;DHT22;44240;51.840;7.258;2022-10-24T03:59:16;15.60;99.90
58447;DHT22;44240;51.840;7.258;2022-10-24T04:01:41;15.60;99.90
58447;DHT22;44240;51.840;7.258;2022-10-24T04:04:07;15.60;99.90
58447;DHT22;44240;51.840;7.258;2022-10-24T04:06:33;15.60;99.90
58447;DHT22;44240;51.840;7.258;2022-10-24T04:08:58;15.60;99.90
58447;DHT22;44240;51.840;7.258;2022-10-24T04:11:24;15.60;99.90
58447;DHT22;44240;51.840;7.258;2022-10-24T04:13:50;15.60;99.90
58447;DHT22;44240;51.840;7.258;2022-10-24T04:16:17;15.60;99.90
58447;DHT22;44240;51.840;7.258;2022-10-24T04:18:43;15.70;99.90
58447;DHT22;44240;51.840;7.258;2022-10-24T04:21:08;15.70;99.90
58447;DHT22;44240;51.840;7.258;2022-10-24T04:23:34;15.70;99.90
58447;DHT22;44240;51.840;7.258;2022-10-24T04:26:06;15.70;99.90
58447;DHT22;44240;51.840;7.258;2022-10-24T04:28:31;15.70;99.90
58447;DHT22;44240;51.840;7.258;2022-10-24T04:30:57;15.70;99.90
58447;DHT22;44240;51.840;7.258;2022-10-24T04:33:22;15.70;99.90
58447;DHT22;44240;51.840;7.258;2022-10-24T04:35:49;15.70;99.90
58447;DHT22;44240;51.840;7.258;2022-10-24T04:38:15;15.70;99.90
58447;DHT22;44240;51.840;7.258;2022-10-24T04:40:48;15.60;99.90
58447;DHT22;44240;51.840;7.258;2022-10-24T04:43:14;15.60;99.90
58447;DHT22;44240;51.840;7.258;2022-10-24T04:45:39;15.60;99.90
58447;DHT22;44240;51.840;7.258;2022-10-24T04:48:05;15.60;99.90
58447;DHT22;44240;51.840;7.258;2022-10-24T04:50:31;15.60;99.90
58447;DHT22;44240;51.840;7.258;2022-10-24T04:52:56;15.60;99.90
58447;DHT22;44240;51.840;7.258;2022-10-24T04:55:22;15.60;99.90
58447;DHT22;44240;51.840;7.258;2022-10-24T04:57:47;15.60;99.90
58447;DHT22;44240;51.840;7.258;2022-10-24T05:00:13;15.60;99.90
58447;DHT22;44240;51.840;7.258;2022-10-24T05:02:39;15.60;99.90
58447;DHT22;44240;51.840;7.258;2022-10-24T05:05:05;15.70;99.90
58447;DHT22;44240;51.840;7.258;2022-10-24T05:07:31;15.70;99.90
58447;DHT22;44240;51.840;7.258;2022-10-24T05:09:56;15.70;99.90
58447;DHT22;44240;51.840;7.258;2022-10-24T05:12:22;15.80;99.90
58447;DHT22;44240;51.840;7.258;2022-10-24T05:14:47;15.80;99.90
58447;DHT22;44240;51.840;7.258;2022-10-24T05:17:13;15.80;99.90
58447;DHT22;44240;51.840;7.258;2022-10-24T05:19:39;15.80;99.90
58447;DHT22;44240;51.840;7.258;2022-10-24T05:22:04;15.80;99.90
58447;DHT22;44240;51.840;7.258;2022-10-24T05:24:30;15.90;99.90
58447;DHT22;44240;51.840;7.258;2022-10-24T05:26:56;15.90;99.90
58447;DHT22;44240;51.840;7.258;2022-10-24T05:29:21;16.00;99.90
58447;DHT22;44240;51.840;7.258;2022-10-24T05:31:47;16.00;99.90
58447;DHT22;44240;51.840;7.258;2022-10-24T05:34:12;16.00;99.90
58447;DHT22;44240;51.840;7.258;2022-10-24T05:36:39;16.00;99.90
58447;DHT22;44240;51.840;7.258;2022-10-24T05:39:04;16.00;99.90
58447;DHT22;44240;51.840;7.258;2022-10-24T05:41:30;16.10;99.90
58447;DHT22;44240;51.840;7.258;2022-10-24T05:43:57;16.10;99.90
58447;DHT22;44240;51.840;7.258;2022-10-24T05:46:22;16.10;99.90
58447;DHT22;44240;51.840;7.258;2022-10-24T05:48:48;16.10;99.90
58447;DHT22;44240;51.840;7.258;2022-10-24T05:51:13;16.20;99.90
58447;DHT22;44240;51.840;7.258;2022-10-24T05:53:39;16.20;99.90
58447;DHT22;44240;51.840;7.258;2022-10-24T05:56:05;16.20;99.90
58447;DHT22;44240;51.840;7.258;2022-10-24T05:58:31;16.30;99.90
58447;DHT22;44240;51.840;7.258;2022-10-24T06:00:56;16.30;99.90
58447;DHT22;44240;51.840;7.258;2022-10-24T06:03:22;16.30;99.90
58447;DHT22;44240;51.840;7.258;2022-10-24T06:05:48;16.30;99.90
58447;DHT22;44240;51.840;7.258;2022-10-24T06:08:13;16.40;99.90
58447;DHT22;44240;51.840;7.258;2022-10-24T06:10:39;16.30;99.90
58447;DHT22;44240;51.840;7.258;2022-10-24T06:13:05;16.40;99.90
58447;DHT22;44240;51.840;7.258;2022-10-24T06:15:30;16.40;99.90
58447;DHT22;44240;51.840;7.258;2022-10-24T06:17:56;16.40;99.90
58447;DHT22;44240;51.840;7.258;2022-10-24T06:20:21;16.40;99.90
58447;DHT22;44240;51.840;7.258;2022-10-24T06:22:48;16.40;99.90
58447;DHT22;44240;51.840;7.258;2022-10-24T06:25:14;16.40;99.90
58447;DHT22;44240;51.840;7.258;2022-10-24T06:27:40;16.30;99.90
58447;DHT22;44240;51.840;7.258;2022-10-24T06:30:07;16.40;99.90
58447;DHT22;44240;51.840;7.258;2022-10-24T06:32:34;16.40;99.90
58447;DHT22;44240;51.840;7.258;2022-10-24T06:34:59;16.40;99.90
58447;DHT22;44240;51.840;7.258;2022-10-24T06:37:26;16.40;99.90
58447;DHT22;44240;51.840;7.258;2022-10-24T06:39:52;16.40;99.90
58447;DHT22;44240;51.840;7.258;2022-10-24T06:42:18;16.40;99.90
58447;DHT22;44240;51.840;7.258;2022-10-24T06:44:43;16.40;99.90
58447;DHT22;44240;51.840;7.258;2022-10-24T06:47:09;16.40;99.90
58447;DHT22;44240;51.840;7.258;2022-10-24T06:49:35;16.40;99.90
58447;DHT22;44240;51.840;7.258;2022-10-24T06:52:00;16.40;99.90
58447;DHT22;44240;51.840;7.258;2022-10-24T06:54:26;16.40;99.90
58447;DHT22;44240;51.840;7.258;2022-10-24T06:56:51;16.40;99.90
58447;DHT22;44240;51.840;7.258;2022-10-24T06:59:17;16.40;99.90
58447;DHT22;44240;51.840;7.258;2022-10-24T07:01:44;16.40;99.90
58447;DHT22;44240;51.840;7.258;2022-10-24T07:04:09;16.40;99.90
58447;DHT22;44240;51.840;7.258;2022-10-24T07:06:35;16.40;99.90
58447;DHT22;44240;51.840;7.258;2022-10-24T07:09:03;16.40;99.90
58447;DHT22;44240;51.840;7.258;2022-10-24T07:11:29;16.40;99.90
58447;DHT22;44240;51.840;7.258;2022-10-24T07:13:55;16.40;99.90
58447;DHT22;44240;51.840;7.258;2022-10-24T07:16:21;16.40;99.90
58447;DHT22;44240;51.840;7.258;2022-10-24T07:18:46;16.50;99.90
58447;DHT22;44240;51.840;7.258;2022-10-24T07:21:18;16.50;99.90
58447;DHT22;44240;51.840;7.258;2022-10-24T07:23:44;16.50;99.90
58447;DHT22;44240;51.840;7.258;2022-10-24T07:26:12;16.50;99.90
58447;DHT22;44240;51.840;7.258;2022-10-24T07:28:39;16.50;99.90
58447;DHT22;44240;51.840;7.258;2022-10-24T07:31:06;16.50;99.90
58447;DHT22;44240;51.840;7.258;2022-10-24T07:33:32;16.60;99.90
58447;DHT22;44240;51.840;7.258;2022-10-24T07:35:59;16.60;99.90
58447;DHT22;44240;51.840;7.258;2022-10-24T07:38:24;16.60;99.90
58447;DHT22;44240;51.840;7.258;2022-10-24T07:40:50;16.60;99.90
58447;DHT22;44240;51.840;7.258;2022-10-24T07:43:16;16.70;99.90
58447;DHT22;44240;51.840;7.258;2022-10-24T07:45:42;16.70;99.90
58447;DHT22;44240;51.840;7.258;2022-10-24T07:48:09;16.70;99.90
58447;DHT22;44240;51.840;7.258;2022-10-24T07:50:44;16.70;99.90
58447;DHT22;44240;51.840;7.258;2022-10-24T07:53:10;16.70;99.90
58447;DHT22;44240;51.840;7.258;2022-10-24T07:55:40;16.70;99.90
58447;DHT22;44240;51.840;7.258;2022-10-24T07:58:07;16.70;99.90
58447;DHT22;44240;51.840;7.258;2022-10-24T08:00:33;16.70;99.90
58447;DHT22;44240;51.840;7.258;2022-10-24T08:02:59;16.70;99.90
58447;DHT22;44240;51.840;7.258;2022-10-24T08:05:24;16.70;99.90
58447;DHT22;44240;51.840;7.258;2022-10-24T08:07:50;16.70;99.90
58447;DHT22;44240;51.840;7.258;2022-10-24T08:10:16;16.70;99.90
58447;DHT22;44240;51.840;7.258;2022-10-24T08:12:42;16.80;99.90
58447;DHT22;44240;51.840;7.258;2022-10-24T08:15:08;16.80;99.90
58447;DHT22;44240;51.840;7.258;2022-10-24T08:17:34;16.80;99.90
58447;DHT22;44240;51.840;7.258;2022-10-24T08:20:04;16.90;99.90
58447;DHT22;44240;51.840;7.258;2022-10-24T08:22:30;16.90;99.90
58447;DHT22;44240;51.840;7.258;2022-10-24T08:24:55;16.90;99.90
58447;DHT22;44240;51.840;7.258;2022-10-24T08:27:21;17.00;99.90
58447;DHT22;44240;51.840;7.258;2022-10-24T08:29:46;17.10;99.90
58447;DHT22;44240;51.840;7.258;2022-10-24T08:32:12;17.10;99.90
58447;DHT22;44240;51.840;7.258;2022-10-24T08:34:37;17.20;99.90
58447;DHT22;44240;51.840;7.258;2022-10-24T08:37:03;17.20;99.90
58447;DHT22;44240;51.840;7.258;2022-10-24T08:39:29;17.20;99.90
58447;DHT22;44240;51.840;7.258;2022-10-24T08:42:02;17.30;99.90
58447;DHT22;44240;51.840;7.258;2022-10-24T08:44:39;17.30;99.90
58447;DHT22;44240;51.840;7.258;2022-10-24T08:50:41;17.30;99.90
58447;DHT22;44240;51.840;7.258;2022-10-24T08:52:54;17.30;99.90
58447;DHT22;44240;51.840;7.258;2022-10-24T08:55:24;17.30;99.90
58447;DHT22;44240;51.840;7.258;2022-10-24T08:57:56;17.30;99.90
58447;DHT22;44240;51.840;7.258;2022-10-24T09:00:32;17.30;99.90
58447;DHT22;44240;51.840;7.258;2022-10-24T09:05:53;17.40;99.90
58447;DHT22;44240;51.840;7.258;2022-10-24T09:08:31;17.50;99.90
58447;DHT22;44240;51.840;7.258;2022-10-24T09:11:05;17.50;99.90
58447;DHT22;44240;51.840;7.258;2022-10-24T09:13:34;17.50;99.90
58447;DHT22;44240;51.840;7.258;2022-10-24T09:16:00;17.60;99.90
58447;DHT22;44240;51.840;7.258;2022-10-24T09:18:28;17.60;99.90
58447;DHT22;44240;51.840;7.258;2022-10-24T09:20:55;17.70;99.90
58447;DHT22;44240;51.840;7.258;2022-10-24T09:23:22;17.70;99.90
58447;DHT22;44240;51.840;7.258;2022-10-24T09:25:54;17.70;99.80
58447;DHT22;44240;51.840;7.258;2022-10-24T09:28:21;17.80;99.90
58447;DHT22;44240;51.840;7.258;2022-10-24T09:30:47;17.80;99.60
58447;DHT22;44240;51.840;7.258;2022-10-24T09:33:33;17.90;99.50
58447;DHT22;44240;51.840;7.258;2022-10-24T09:36:02;18.00;99.20
58447;DHT22;44240;51.840;7.258;2022-10-24T09:38:34;18.00;98.90
58447;DHT22;44240;51.840;7.258;2022-10-24T09:41:15;18.10;98.70
58447;DHT22;44240;51.840;7.258;2022-10-24T09:43:49;18.10;98.40
58447;DHT22;44240;51.840;7.258;2022-10-24T09:46:18;18.10;98.70
58447;DHT22;44240;51.840;7.258;2022-10-24T09:48:48;18.20;99.00
58447;DHT22;44240;51.840;7.258;2022-10-24T09:51:23;18.20;98.70
58447;DHT22;44240;51.840;7.258;2022-10-24T09:54:20;18.20;98.80
58447;DHT22;44240;51.840;7.258;2022-10-24T09:56:55;18.20;98.80
58447;DHT22;44240;51.840;7.258;2022-10-24T09:59:42;18.20;98.80
58447;DHT22;44240;51.840;7.258;2022-10-24T10:02:28;18.20;98.90
58447;DHT22;44240;51.840;7.258;2022-10-24T10:07:36;18.20;98.50
58447;DHT22;44240;51.840;7.258;2022-10-24T10:10:05;18.20;98.70
58447;DHT22;44240;51.840;7.258;2022-10-24T10:12:34;18.20;98.60
58447;DHT22;44240;51.840;7.258;2022-10-24T10:15:16;18.30;98.50
58447;DHT22;44240;51.840;7.258;2022-10-24T10:17:54;18.30;98.30
58447;DHT22;44240;51.840;7.258;2022-10-24T10:20:35;18.30;98.20
58447;DHT22;44240;51.840;7.258;2022-10-24T10:23:49;18.30;98.50
58447;DHT22;44240;51.840;7.258;2022-10-24T10:28:57;18.40;98.60
58447;DHT22;44240;51.840;7.258;2022-10-24T10:31:41;18.40;98.60
58447;DHT22;44240;51.840;7.258;2022-10-24T10:37:22;18.40;98.80
58447;DHT22;44240;51.840;7.258;2022-10-24T10:50:41;18.60;98.30
58447;DHT22;44240;51.840;7.258;2022-10-24T10:56:17;18.90;97.70
58447;DHT22;44240;51.840;7.258;2022-10-24T11:01:59;18.90;97.10
58447;DHT22;44240;51.840;7.258;2022-10-24T11:04:50;19.00;97.50
58447;DHT22;44240;51.840;7.258;2022-10-24T11:10:07;19.10;96.50
58447;DHT22;44240;51.840;7.258;2022-10-24T11:12:35;19.10;96.40
58447;DHT22;44240;51.840;7.258;2022-10-24T11:15:05;19.20;96.40
58447;DHT22;44240;51.840;7.258;2022-10-24T11:17:49;19.20;96.30
58447;DHT22;44240;51.840;7.258;2022-10-24T11:23:24;19.10;96.40
58447;DHT22;44240;51.840;7.258;2022-10-24T11:25:55;19.10;96.50
58447;DHT22;44240;51.840;7.258;2022-10-24T11:31:39;19.10;96.70
58447;DHT22;44240;51.840;7.258;2022-10-24T11:36:53;19.10;96.30
58447;DHT22;44240;51.840;7.258;2022-10-24T11:39:24;19.20;96.40
58447;DHT22;44240;51.840;7.258;2022-10-24T11:42:14;19.20;96.10
58447;DHT22;44240;51.840;7.258;2022-10-24T11:50:12;19.30;96.30
58447;DHT22;44240;51.840;7.258;2022-10-24T11:52:43;19.40;95.90
58447;DHT22;44240;51.840;7.258;2022-10-24T11:57:45;19.50;95.80
58447;DHT22;44240;51.840;7.258;2022-10-24T12:00:23;19.60;95.30
58447;DHT22;44240;51.840;7.258;2022-10-24T12:05:50;19.60;95.20
58447;DHT22;44240;51.840;7.258;2022-10-24T12:08:22;19.60;95.40
58447;DHT22;44240;51.840;7.258;2022-10-24T12:11:20;19.70;95.40
58447;DHT22;44240;51.840;7.258;2022-10-24T12:17:01;19.80;94.90
58447;DHT22;44240;51.840;7.258;2022-10-24T12:19:31;19.80;95.00
58447;DHT22;44240;51.840;7.258;2022-10-24T12:22:02;19.80;95.20
58447;DHT22;44240;51.840;7.258;2022-10-24T12:24:34;19.80;95.00
58447;DHT22;44240;51.840;7.258;2022-10-24T12:27:17;19.80;95.00
58447;DHT22;44240;51.840;7.258;2022-10-24T12:29:45;19.70;94.90
58447;DHT22;44240;51.840;7.258;2022-10-24T12:32:38;19.70;94.80
58447;DHT22;44240;51.840;7.258;2022-10-24T12:41:05;19.50;95.00
58447;DHT22;44240;51.840;7.258;2022-10-24T12:43:42;19.60;94.90
58447;DHT22;44240;51.840;7.258;2022-10-24T12:56:32;19.70;94.70
58447;DHT22;44240;51.840;7.258;2022-10-24T12:59:20;19.70;94.60
58447;DHT22;44240;51.840;7.258;2022-10-24T13:01:48;19.80;95.10
58447;DHT22;44240;51.840;7.258;2022-10-24T13:14:10;19.70;95.00
58447;DHT22;44240;51.840;7.258;2022-10-24T13:17:02;19.70;95.20
58447;DHT22;44240;51.840;7.258;2022-10-24T13:19:30;19.70;95.20
58447;DHT22;44240;51.840;7.258;2022-10-24T13:21:57;19.70;95.00
58447;DHT22;44240;51.840;7.258;2022-10-24T13:31:49;19.70;95.10
58447;DHT22;44240;51.840;7.258;2022-10-24T13:36:51;19.70;94.80
58447;DHT22;44240;51.840;7.258;2022-10-24T13:39:23;19.90;94.70
58447;DHT22;44240;51.840;7.258;2022-10-24T13:42:00;20.10;94.40
58447;DHT22;44240;51.840;7.258;2022-10-24T13:44:42;20.10;94.30
58447;DHT22;44240;51.840;7.258;2022-10-24T13:50:04;20.00;94.40
58447;DHT22;44240;51.840;7.258;2022-10-24T13:52:55;19.90;94.40
58447;DHT22;44240;51.840;7.258;2022-10-24T13:58:08;19.70;94.90
58447;DHT22;44240;51.840;7.258;2022-10-24T14:00:37;19.80;94.80
58447;DHT22;44240;51.840;7.258;2022-10-24T14:03:13;19.70;95.10
58447;DHT22;44240;51.840;7.258;2022-10-24T14:05:48;19.50;95.40
58447;DHT22;44240;51.840;7.258;2022-10-24T14:08:20;19.40;95.30
58447;DHT22;44240;51.840;7.258;2022-10-24T14:10:46;19.30;95.40
58447;DHT22;44240;51.840;7.258;2022-10-24T14:13:16;19.20;95.70
58447;DHT22;44240;51.840;7.258;2022-10-24T14:15:50;19.20;96.00
58447;DHT22;44240;51.840;7.258;2022-10-24T14:18:19;19.10;96.40
58447;DHT22;44240;51.840;7.258;2022-10-24T14:21:00;19.00;97.20
58447;DHT22;44240;51.840;7.258;2022-10-24T14:23:36;18.90;97.20
58447;DHT22;44240;51.840;7.258;2022-10-24T14:26:16;18.90;97.60
58447;DHT22;44240;51.840;7.258;2022-10-24T14:28:47;18.80;97.90
58447;DHT22;44240;51.840;7.258;2022-10-24T14:31:29;18.70;98.10
58447;DHT22;44240;51.840;7.258;2022-10-24T14:33:57;18.70;98.30
58447;DHT22;44240;51.840;7.258;2022-10-24T14:36:28;18.60;98.30
58447;DHT22;44240;51.840;7.258;2022-10-24T14:38:55;18.60;98.50
58447;DHT22;44240;51.840;7.258;2022-10-24T14:41:28;18.50;98.50
58447;DHT22;44240;51.840;7.258;2022-10-24T14:43:55;18.40;98.70
58447;DHT22;44240;51.840;7.258;2022-10-24T14:49:01;18.30;98.90
58447;DHT22;44240;51.840;7.258;2022-10-24T14:51:43;18.30;99.10
58447;DHT22;44240;51.840;7.258;2022-10-24T14:54:29;18.30;99.20
58447;DHT22;44240;51.840;7.258;2022-10-24T14:56:57;18.20;99.40
58447;DHT22;44240;51.840;7.258;2022-10-24T14:59:36;18.30;99.70
58447;DHT22;44240;51.840;7.258;2022-10-24T15:04:44;18.20;99.90
58447;DHT22;44240;51.840;7.258;2022-10-24T15:09:51;18.20;99.90
58447;DHT22;44240;51.840;7.258;2022-10-24T15:14:51;18.20;99.90
58447;DHT22;44240;51.840;7.258;2022-10-24T15:17:29;18.20;99.90
58447;DHT22;44240;51.840;7.258;2022-10-24T15:19:57;18.20;99.90
58447;DHT22;44240;51.840;7.258;2022-10-24T15:22:30;18.20;99.90
58447;DHT22;44240;51.840;7.258;2022-10-24T15:24:59;18.20;99.90
58447;DHT22;44240;51.840;7.258;2022-10-24T15:27:38;18.30;99.90
58447;DHT22;44240;51.840;7.258;2022-10-24T15:30:17;18.30;99.90
58447;DHT22;44240;51.840;7.258;2022-10-24T15:32:45;18.30;99.90
58447;DHT22;44240;51.840;7.258;2022-10-24T15:35:12;18.20;99.90
58447;DHT22;44240;51.840;7.258;2022-10-24T15:37:38;18.20;99.90
58447;DHT22;44240;51.840;7.258;2022-10-24T15:40:18;18.10;99.90
58447;DHT22;44240;51.840;7.258;2022-10-24T15:42:44;18.10;99.90
58447;DHT22;44240;51.840;7.258;2022-10-24T15:45:14;18.00;99.90
58447;DHT22;44240;51.840;7.258;2022-10-24T15:47:41;18.00;99.90
58447;DHT22;44240;51.840;7.258;2022-10-24T15:50:06;17.90;99.90
58447;DHT22;44240;51.840;7.258;2022-10-24T15:52:33;17.90;99.90
58447;DHT22;44240;51.840;7.258;2022-10-24T15:54:59;17.80;99.90
58447;DHT22;44240;51.840;7.258;2022-10-24T15:57:25;17.80;99.90
58447;DHT22;44240;51.840;7.258;2022-10-24T15:59:50;17.80;99.90
58447;DHT22;44240;51.840;7.258;2022-10-24T16:02:21;17.70;99.90
58447;DHT22;44240;51.840;7.258;2022-10-24T16:04:47;17.70;99.90
58447;DHT22;44240;51.840;7.258;2022-10-24T16:07:13;17.60;99.90
58447;DHT22;44240;51.840;7.258;2022-10-24T16:09:39;17.60;99.90
58447;DHT22;44240;51.840;7.258;2022-10-24T16:12:05;17.50;99.90
58447;DHT22;44240;51.840;7.258;2022-10-24T16:14:31;17.60;99.90
58447;DHT22;44240;51.840;7.258;2022-10-24T16:16:57;17.50;99.90
58447;DHT22;44240;51.840;7.258;2022-10-24T16:19:24;17.50;99.90
58447;DHT22;44240;51.840;7.258;2022-10-24T16:21:51;17.50;99.90
58447;DHT22;44240;51.840;7.258;2022-10-24T16:24:17;17.40;99.90
58447;DHT22;44240;51.840;7.258;2022-10-24T16:26:43;17.40;99.90
58447;DHT22;44240;51.840;7.258;2022-10-24T16:29:09;17.40;99.90
58447;DHT22;44240;51.840;7.258;2022-10-24T16:31:35;17.30;99.90
58447;DHT22;44240;51.840;7.258;2022-10-24T16:34:01;17.30;99.90
58447;DHT22;44240;51.840;7.258;2022-10-24T16:36:27;17.30;99.90
58447;DHT22;44240;51.840;7.258;2022-10-24T16:38:53;17.20;99.90
58447;DHT22;44240;51.840;7.258;2022-10-24T16:41:21;17.20;99.90
58447;DHT22;44240;51.840;7.258;2022-10-24T16:43:48;17.20;99.90
58447;DHT22;44240;51.840;7.258;2022-10-24T16:46:19;17.20;99.90
58447;DHT22;44240;51.840;7.258;2022-10-24T16:48:45;17.10;99.90
58447;DHT22;44240;51.840;7.258;2022-10-24T16:51:17;17.10;99.90
58447;DHT22;44240;51.840;7.258;2022-10-24T16:53:43;17.10;99.90
58447;DHT22;44240;51.840;7.258;2022-10-24T16:56:10;17.10;99.90
58447;DHT22;44240;51.840;7.258;2022-10-24T16:58:38;17.00;99.90
58447;DHT22;44240;51.840;7.258;2022-10-24T17:01:05;17.00;99.90
58447;DHT22;44240;51.840;7.258;2022-10-24T17:03:31;16.90;99.90
58447;DHT22;44240;51.840;7.258;2022-10-24T17:05:57;16.90;99.90
58447;DHT22;44240;51.840;7.258;2022-10-24T17:08:23;16.90;99.90
58447;DHT22;44240;51.840;7.258;2022-10-24T17:10:49;16.80;99.90
58447;DHT22;44240;51.840;7.258;2022-10-24T17:13:14;16.80;99.90
58447;DHT22;44240;51.840;7.258;2022-10-24T17:15:40;16.70;99.90
58447;DHT22;44240;51.840;7.258;2022-10-24T17:18:05;16.70;99.90
58447;DHT22;44240;51.840;7.258;2022-10-24T17:20:32;16.60;99.90
58447;DHT22;44240;51.840;7.258;2022-10-24T17:22:58;16.60;99.90
58447;DHT22;44240;51.840;7.258;2022-10-24T17:25:25;16.60;99.90
58447;DHT22;44240;51.840;7.258;2022-10-24T17:27:52;16.60;99.90
58447;DHT22;44240;51.840;7.258;2022-10-24T17:30:27;16.60;99.90
58447;DHT22;44240;51.840;7.258;2022-10-24T17:32:54;16.50;99.90
58447;DHT22;44240;51.840;7.258;2022-10-24T17:35:22;16.50;99.90
58447;DHT22;44240;51.840;7.258;2022-10-24T17:40:44;16.50;99.90
58447;DHT22;44240;51.840;7.258;2022-10-24T17:43:17;16.50;99.90
58447;DHT22;44240;51.840;7.258;2022-10-24T17:45:43;16.40;99.90
58447;DHT22;44240;51.840;7.258;2022-10-24T17:48:09;16.40;99.90
58447;DHT22;44240;51.840;7.258;2022-10-24T17:50:35;16.40;99.90
58447;DHT22;44240;51.840;7.258;2022-10-24T17:53:00;16.40;99.90
58447;DHT22;44240;51.840;7.258;2022-10-24T17:55:26;16.40;99.90
58447;DHT22;44240;51.840;7.258;2022-10-24T17:57:52;16.40;99.90